createdAt,value
2023-09-06T00:00:46.926Z,63.13
2023-09-06T00:03:14.459Z,62.76
2023-09-06T00:05:43.473Z,63.42
2023-09-06T00:08:14.408Z,63.38
2023-09-06T00:10:43.274Z,63.84
2023-09-06T00:13:12.284Z,63.69
2023-09-06T00:15:39.083Z,63.40
2023-09-06T00:18:08.014Z,63.89
2023-09-06T00:20:36.401Z,63.98
2023-09-06T00:23:06.006Z,64.32
2023-09-06T00:25:33.572Z,64.71
2023-09-06T00:28:02.275Z,64.27
2023-09-06T00:30:29.293Z,64.11
2023-09-06T00:32:56.254Z,64.69
2023-09-06T00:35:25.475Z,64.50
2023-09-06T00:37:56.909Z,64.44
2023-09-06T00:40:23.988Z,64.29
2023-09-06T00:45:32.650Z,64.86
2023-09-06T00:48:00.368Z,64.67
2023-09-06T00:50:28.342Z,65.22
2023-09-06T00:52:57.018Z,64.94
2023-09-06T00:55:24.300Z,65.28
2023-09-06T00:57:51.339Z,64.95
2023-09-06T01:00:21.015Z,64.96
2023-09-06T01:02:48.723Z,65.00
2023-09-06T01:05:17.735Z,64.84
2023-09-06T01:07:48.271Z,65.24
2023-09-06T01:10:15.069Z,65.69
2023-09-06T01:12:42.311Z,65.16
2023-09-06T01:15:11.591Z,65.51
2023-09-06T01:17:42.961Z,65.34
2023-09-06T01:20:30.371Z,66.10
2023-09-06T01:25:38.145Z,66.50
2023-09-06T01:28:05.436Z,66.37
2023-09-06T01:30:32.513Z,67.02
2023-09-06T01:32:59.499Z,66.72
2023-09-06T01:35:26.312Z,66.30
2023-09-06T01:37:53.090Z,66.49
2023-09-06T01:40:21.219Z,67.02
2023-09-06T01:42:48.797Z,67.27
2023-09-06T01:45:21.234Z,66.52
2023-09-06T01:47:51.127Z,66.69
2023-09-06T01:50:21.278Z,67.12
2023-09-06T01:52:48.978Z,67.07
2023-09-06T01:55:15.853Z,67.38
2023-09-06T01:57:42.480Z,67.13
2023-09-06T02:00:28.427Z,67.16
2023-09-06T02:02:56.499Z,67.71
2023-09-06T02:05:23.899Z,66.95
2023-09-06T02:07:51.305Z,67.69
2023-09-06T02:10:18.576Z,67.32
2023-09-06T02:12:45.958Z,67.13
2023-09-06T02:15:15.912Z,67.72
2023-09-06T02:17:43.860Z,67.22
2023-09-06T02:20:28.035Z,67.58
2023-09-06T02:22:57.249Z,67.18
2023-09-06T02:25:30.639Z,67.28
2023-09-06T02:27:59.343Z,67.35
2023-09-06T02:30:26.204Z,67.52
2023-09-06T02:32:56.267Z,68.11
2023-09-06T02:35:23.308Z,67.91
2023-09-06T02:37:51.277Z,68.00
2023-09-06T02:40:19.568Z,67.70
2023-09-06T02:42:46.354Z,67.19
2023-09-06T02:45:13.740Z,67.96
2023-09-06T02:47:50.711Z,67.80
2023-09-06T02:50:24.322Z,67.33
2023-09-06T02:52:55.020Z,67.67
2023-09-06T02:55:22.269Z,67.15
2023-09-06T02:57:50.693Z,67.20
2023-09-06T03:00:26.670Z,67.19
2023-09-06T03:03:07.421Z,67.84
2023-09-06T03:05:42.667Z,67.64
2023-09-06T03:08:11.584Z,67.61
2023-09-06T03:10:42.000Z,67.89
2023-09-06T03:13:10.447Z,68.19
2023-09-06T03:15:37.795Z,67.63
2023-09-06T03:18:06.612Z,67.72
2023-09-06T03:20:35.673Z,67.34
2023-09-06T03:23:18.218Z,67.32
2023-09-06T03:25:47.005Z,67.74
2023-09-06T03:28:13.665Z,67.61
2023-09-06T03:30:40.531Z,67.93
2023-09-06T03:33:07.882Z,67.43
2023-09-06T03:35:34.794Z,67.69
2023-09-06T03:38:01.600Z,68.26
2023-09-06T03:40:36.883Z,68.23
2023-09-06T03:43:16.106Z,67.99
2023-09-06T03:45:45.354Z,68.23
2023-09-06T03:48:14.373Z,68.05
2023-09-06T03:50:41.676Z,68.40
2023-09-06T03:53:08.395Z,67.94
2023-09-06T03:55:37.980Z,68.66
2023-09-06T03:58:08.589Z,67.89
2023-09-06T04:00:36.110Z,68.52
2023-09-06T04:03:05.219Z,68.36
2023-09-06T04:08:01.535Z,68.41
2023-09-06T04:10:33.457Z,68.05
2023-09-06T04:13:00.093Z,68.58
2023-09-06T04:15:26.810Z,68.58
2023-09-06T04:18:00.226Z,68.72
2023-09-06T04:20:28.551Z,68.77
2023-09-06T04:22:56.808Z,68.71
2023-09-06T04:25:24.113Z,68.37
2023-09-06T04:27:55.824Z,69.13
2023-09-06T04:30:24.445Z,68.78
2023-09-06T04:32:52.903Z,69.51
2023-09-06T04:35:19.935Z,69.39
2023-09-06T04:37:46.830Z,68.65
2023-09-06T04:40:14.299Z,69.44
2023-09-06T04:42:42.205Z,68.99
2023-09-06T04:45:11.985Z,68.90
2023-09-06T04:47:41.078Z,68.85
2023-09-06T04:50:08.638Z,69.50
2023-09-06T04:52:44.765Z,68.86
2023-09-06T04:55:13.978Z,68.80
2023-09-06T04:57:42.443Z,68.65
2023-09-06T05:00:17.157Z,69.30
2023-09-06T05:02:48.031Z,68.69
2023-09-06T05:05:16.378Z,68.60
2023-09-06T05:07:43.381Z,69.47
2023-09-06T05:10:11.239Z,68.82
2023-09-06T05:12:38.836Z,69.09
2023-09-06T05:15:06.620Z,68.58
2023-09-06T05:17:34.310Z,69.13
2023-09-06T05:20:29.625Z,69.28
2023-09-06T05:22:58.149Z,69.49
2023-09-06T05:25:25.679Z,68.91
2023-09-06T05:27:55.507Z,68.63
2023-09-06T05:30:22.261Z,69.19
2023-09-06T05:32:48.930Z,68.63
2023-09-06T05:35:15.703Z,68.88
2023-09-06T05:37:42.506Z,68.74
2023-09-06T05:40:10.419Z,68.98
2023-09-06T05:42:38.290Z,69.47
2023-09-06T05:45:05.640Z,68.54
2023-09-06T05:47:32.516Z,68.59
2023-09-06T05:49:59.438Z,69.32
2023-09-06T05:52:26.107Z,69.21
2023-09-06T05:54:55.370Z,69.40
2023-09-06T05:57:23.260Z,69.69
2023-09-06T05:59:50.035Z,69.09
2023-09-06T06:02:16.973Z,69.25
2023-09-06T06:04:46.669Z,69.95
2023-09-06T06:07:14.371Z,69.99
2023-09-06T06:09:41.706Z,69.39
2023-09-06T06:12:08.644Z,69.60
2023-09-06T06:14:37.741Z,69.81
2023-09-06T06:17:06.674Z,69.41
2023-09-06T06:19:34.930Z,69.44
2023-09-06T06:22:02.986Z,69.64
2023-09-06T06:24:30.851Z,70.42
2023-09-06T06:26:57.659Z,70.64
2023-09-06T06:29:25.193Z,70.21
2023-09-06T06:31:52.402Z,70.58
2023-09-06T06:34:20.027Z,69.66
2023-09-06T06:36:47.815Z,70.85
2023-09-06T06:39:15.388Z,70.40
2023-09-06T06:41:43.274Z,69.93
2023-09-06T06:44:10.319Z,70.76
2023-09-06T06:46:39.999Z,70.17
2023-09-06T06:49:08.593Z,71.06
2023-09-06T06:51:39.715Z,70.62
2023-09-06T06:54:09.625Z,69.67
2023-09-06T06:56:37.582Z,70.67
2023-09-06T06:59:05.239Z,70.24
2023-09-06T07:01:32.438Z,69.92
2023-09-06T07:03:59.596Z,69.94
2023-09-06T07:06:27.641Z,70.24
2023-09-06T07:08:55.812Z,70.20
2023-09-06T07:11:22.652Z,70.51
2023-09-06T07:13:50.589Z,69.97
2023-09-06T07:16:19.591Z,70.47
2023-09-06T07:18:48.306Z,70.49
2023-09-06T07:21:16.726Z,70.19
2023-09-06T07:23:44.199Z,70.27
2023-09-06T07:26:11.361Z,70.46
2023-09-06T07:31:15.686Z,69.69
2023-09-06T07:33:43.760Z,69.99
2023-09-06T07:36:12.253Z,70.16
2023-09-06T07:38:39.129Z,69.53
2023-09-06T07:41:09.273Z,69.51
2023-09-06T07:43:37.630Z,69.61
2023-09-06T07:46:07.705Z,69.93
2023-09-06T07:48:34.708Z,69.83
2023-09-06T07:51:05.323Z,69.59
2023-09-06T07:53:32.562Z,69.26
2023-09-06T07:55:59.401Z,68.77
2023-09-06T07:58:27.193Z,69.36
2023-09-06T08:01:06.148Z,69.50
2023-09-06T08:03:42.559Z,68.86
2023-09-06T08:06:09.346Z,69.00
2023-09-06T08:08:36.103Z,68.86
2023-09-06T08:11:02.797Z,68.80
2023-09-06T08:13:29.434Z,68.90
2023-09-06T08:15:55.995Z,68.90
2023-09-06T08:18:22.675Z,68.08
2023-09-06T08:20:49.561Z,67.73
2023-09-06T08:23:16.118Z,67.22
2023-09-06T08:25:42.776Z,66.53
2023-09-06T08:28:09.482Z,65.70
2023-09-06T08:30:36.310Z,65.17
2023-09-06T08:33:03.307Z,64.46
2023-09-06T08:35:29.994Z,64.31
2023-09-06T08:37:56.632Z,62.57
2023-09-06T08:40:23.483Z,62.00
2023-09-06T08:42:53.719Z,60.94
2023-09-06T08:45:23.974Z,59.46
2023-09-06T08:47:51.561Z,57.77
2023-09-06T08:50:18.585Z,56.94
2023-09-06T08:52:46.017Z,56.78
2023-09-06T08:55:13.169Z,55.45
2023-09-06T08:57:41.691Z,55.31
2023-09-06T09:00:10.919Z,54.87
2023-09-06T09:02:41.721Z,53.74
2023-09-06T09:05:20.459Z,53.38
2023-09-06T09:07:50.897Z,52.01
2023-09-06T09:10:18.240Z,51.81
2023-09-06T09:12:45.040Z,51.33
2023-09-06T09:17:57.000Z,49.68
2023-09-06T09:20:28.158Z,49.77
2023-09-06T09:23:03.125Z,49.26
2023-09-06T09:25:30.937Z,48.86
2023-09-06T09:27:59.590Z,47.98
2023-09-06T09:30:29.082Z,47.75
2023-09-06T09:33:00.460Z,47.59
2023-09-06T09:35:27.898Z,46.86
2023-09-06T09:37:55.054Z,46.50
2023-09-06T09:40:29.333Z,45.89
2023-09-06T09:43:03.691Z,45.58
2023-09-06T09:45:39.822Z,45.84
2023-09-06T09:48:08.103Z,45.60
2023-09-06T09:50:36.147Z,45.19
2023-09-06T09:53:20.449Z,44.59
2023-09-06T09:55:49.682Z,44.97
2023-09-06T09:58:18.605Z,44.63
2023-09-06T10:00:46.263Z,43.84
2023-09-06T10:03:14.927Z,44.44
2023-09-06T10:05:43.721Z,43.33
2023-09-06T10:08:11.536Z,43.95
2023-09-06T10:10:40.655Z,43.70
2023-09-06T10:13:09.761Z,44.02
2023-09-06T10:15:38.792Z,43.83
2023-09-06T10:18:07.434Z,43.85
2023-09-06T10:20:36.270Z,43.46
2023-09-06T10:23:05.887Z,42.96
2023-09-06T10:25:33.305Z,42.65
2023-09-06T10:28:01.285Z,42.56
2023-09-06T10:36:14.775Z,41.99
2023-09-06T10:41:38.751Z,41.44
2023-09-06T10:44:07.414Z,41.73
2023-09-06T10:46:36.691Z,41.20
2023-09-06T10:49:28.688Z,40.26
2023-09-06T10:54:40.153Z,40.12
2023-09-06T10:57:11.539Z,40.13
2023-09-06T10:59:43.365Z,40.38
2023-09-06T11:02:28.223Z,40.26
2023-09-06T11:05:10.925Z,40.54
2023-09-06T11:07:50.171Z,39.92
2023-09-06T11:10:24.224Z,38.96
2023-09-06T11:12:55.725Z,39.40
2023-09-06T11:15:23.901Z,39.19
2023-09-06T11:17:53.833Z,39.09
2023-09-06T11:20:21.627Z,39.38
2023-09-06T11:22:51.343Z,38.30
2023-09-06T11:25:20.378Z,39.26
2023-09-06T11:27:48.305Z,38.94
2023-09-06T11:30:23.521Z,38.73
2023-09-06T11:32:52.379Z,39.07
2023-09-06T11:35:24.326Z,39.31
2023-09-06T11:37:55.037Z,38.27
2023-09-06T11:40:23.719Z,38.76
2023-09-06T11:42:54.425Z,38.21
2023-09-06T11:45:23.701Z,38.20
2023-09-06T11:47:54.243Z,39.22
2023-09-06T11:50:25.647Z,38.35
2023-09-06T11:52:58.670Z,38.82
2023-09-06T11:55:28.212Z,38.46
2023-09-06T11:57:59.169Z,38.26
2023-09-06T12:00:39.779Z,38.49
2023-09-06T12:05:50.234Z,37.70
2023-09-06T12:08:21.627Z,37.06
2023-09-06T12:10:52.014Z,37.49
2023-09-06T12:13:19.167Z,36.90
2023-09-06T12:15:46.879Z,36.53
2023-09-06T12:18:15.013Z,36.18
2023-09-06T12:20:42.037Z,36.97
2023-09-06T12:23:08.890Z,36.31
2023-09-06T12:25:35.444Z,36.55
2023-09-06T12:28:04.248Z,36.31
2023-09-06T12:30:32.344Z,36.91
2023-09-06T12:32:59.815Z,36.60
2023-09-06T12:35:26.822Z,37.03
2023-09-06T12:37:54.296Z,36.90
2023-09-06T12:40:29.994Z,36.95
2023-09-06T12:42:57.234Z,36.90
2023-09-06T12:45:29.340Z,37.35
2023-09-06T12:47:58.207Z,37.03
2023-09-06T12:50:25.449Z,37.55
2023-09-06T12:52:53.949Z,36.82
2023-09-06T12:55:21.150Z,36.78
2023-09-06T12:57:48.324Z,36.41
2023-09-06T13:00:16.719Z,36.15
2023-09-06T13:02:44.407Z,36.19
2023-09-06T13:05:11.709Z,36.39
2023-09-06T13:07:38.685Z,36.97
2023-09-06T13:10:06.593Z,37.33
2023-09-06T13:12:34.053Z,36.63
2023-09-06T13:15:01.583Z,36.85
2023-09-06T13:17:28.257Z,36.81
2023-09-06T13:19:56.061Z,36.46
2023-09-06T13:22:23.155Z,36.78
2023-09-06T13:24:50.151Z,36.91
2023-09-06T13:27:16.982Z,36.15
2023-09-06T13:29:43.632Z,36.11
2023-09-06T13:32:10.754Z,36.43
2023-09-06T13:34:37.976Z,36.99
2023-09-06T13:37:05.777Z,36.82
2023-09-06T13:39:33.483Z,36.67
2023-09-06T13:42:02.074Z,36.65
2023-09-06T13:44:34.441Z,36.20
2023-09-06T13:47:01.511Z,36.46
2023-09-06T13:49:28.907Z,36.86
2023-09-06T13:51:55.693Z,36.77
2023-09-06T13:54:24.632Z,36.58
2023-09-06T13:56:52.216Z,36.00
2023-09-06T13:59:19.218Z,35.89
2023-09-06T14:01:46.403Z,35.93
2023-09-06T14:04:13.579Z,35.66
2023-09-06T14:06:40.809Z,36.61
2023-09-06T14:09:11.749Z,36.92
2023-09-06T14:11:39.805Z,36.85
2023-09-06T14:14:07.256Z,37.26
2023-09-06T14:16:34.255Z,36.20
2023-09-06T14:19:02.232Z,36.12
2023-09-06T14:21:30.086Z,36.39
2023-09-06T14:23:57.317Z,36.31
2023-09-06T14:26:23.920Z,36.29
2023-09-06T14:28:50.978Z,36.59
2023-09-06T14:31:17.971Z,36.79
2023-09-06T14:33:44.755Z,37.53
2023-09-06T14:36:12.097Z,37.58
2023-09-06T14:38:39.397Z,37.47
2023-09-06T14:41:06.156Z,37.37
2023-09-06T14:43:33.450Z,37.37
2023-09-06T14:46:05.619Z,37.52
2023-09-06T14:48:33.795Z,36.70
2023-09-06T14:51:02.540Z,36.98
2023-09-06T14:53:29.878Z,37.14
2023-09-06T14:56:01.212Z,37.19
2023-09-06T14:58:29.318Z,37.28
2023-09-06T15:00:56.975Z,38.08
2023-09-06T15:03:25.194Z,37.58
2023-09-06T15:05:52.041Z,38.38
2023-09-06T15:08:19.284Z,37.72
2023-09-06T15:10:46.614Z,38.10
2023-09-06T15:13:13.784Z,38.21
2023-09-06T15:15:41.297Z,38.36
2023-09-06T15:18:08.110Z,38.86
2023-09-06T15:20:35.552Z,38.83
2023-09-06T15:23:02.221Z,38.73
2023-09-06T15:25:30.600Z,39.03
2023-09-06T15:27:57.344Z,38.89
2023-09-06T15:30:24.107Z,39.06
2023-09-06T15:32:50.950Z,38.92
2023-09-06T15:35:18.139Z,38.60
2023-09-06T15:40:38.379Z,39.07
2023-09-06T15:43:05.644Z,39.18
2023-09-06T15:45:33.259Z,39.00
2023-09-06T15:48:01.177Z,39.48
2023-09-06T15:50:29.751Z,38.98
2023-09-06T15:52:57.224Z,39.44
2023-09-06T15:55:24.296Z,39.00
2023-09-06T15:57:52.404Z,38.78
2023-09-06T16:00:31.650Z,38.98
2023-09-06T16:03:00.551Z,39.21
2023-09-06T16:05:28.710Z,38.33
2023-09-06T16:07:57.204Z,38.80
2023-09-06T16:10:25.976Z,38.79
2023-09-06T16:12:53.001Z,38.86
2023-09-06T16:15:23.476Z,38.65
2023-09-06T16:17:51.618Z,39.06
2023-09-06T16:20:20.245Z,38.81
2023-09-06T16:22:46.942Z,39.42
2023-09-06T16:25:14.263Z,40.08
2023-09-06T16:27:41.408Z,40.13
2023-09-06T16:30:10.415Z,39.90
2023-09-06T16:32:37.878Z,39.89
2023-09-06T16:35:11.097Z,40.19
2023-09-06T16:37:40.142Z,39.64
2023-09-06T16:40:12.496Z,40.74
2023-09-06T16:42:41.513Z,41.02
2023-09-06T16:45:09.402Z,40.74
2023-09-06T16:47:37.200Z,40.62
2023-09-06T16:50:04.295Z,41.15
2023-09-06T16:52:31.575Z,40.89
2023-09-06T16:55:01.635Z,41.50
2023-09-06T16:57:29.032Z,41.27
2023-09-06T16:59:55.908Z,41.14
2023-09-06T17:02:27.371Z,41.82
2023-09-06T17:04:55.800Z,41.60
2023-09-06T17:07:22.892Z,41.63
2023-09-06T17:09:50.177Z,41.94
2023-09-06T17:12:17.064Z,41.80
2023-09-06T17:14:43.774Z,41.69
2023-09-06T17:17:10.535Z,42.12
2023-09-06T17:19:40.525Z,42.20
2023-09-06T17:22:07.168Z,42.17
2023-09-06T17:24:33.994Z,42.18
2023-09-06T17:27:06.091Z,42.08
2023-09-06T17:29:38.378Z,42.47
2023-09-06T17:32:05.998Z,42.86
2023-09-06T17:34:34.480Z,42.62
2023-09-06T17:37:03.151Z,42.86
2023-09-06T17:39:29.900Z,43.21
2023-09-06T17:41:56.630Z,42.52
2023-09-06T17:44:23.297Z,43.47
2023-09-06T17:46:50.219Z,43.61
2023-09-06T17:49:16.945Z,43.68
2023-09-06T17:51:45.971Z,44.22
2023-09-06T17:54:14.348Z,43.72
2023-09-06T17:56:42.036Z,43.74
2023-09-06T17:59:08.706Z,43.65
2023-09-06T18:01:36.944Z,43.78
2023-09-06T18:04:05.497Z,44.60
2023-09-06T18:06:32.617Z,44.83
2023-09-06T18:08:59.923Z,45.07
2023-09-06T18:11:26.878Z,44.99
2023-09-06T18:13:53.884Z,44.73
2023-09-06T18:16:21.469Z,44.73
2023-09-06T18:18:51.903Z,45.70
2023-09-06T18:21:23.881Z,45.46
2023-09-06T18:23:52.790Z,45.13
2023-09-06T18:26:19.616Z,45.40
2023-09-06T18:28:47.765Z,44.83
2023-09-06T18:31:24.507Z,45.42
2023-09-06T18:33:52.012Z,45.96
2023-09-06T18:36:18.731Z,45.98
2023-09-06T18:38:45.371Z,46.00
2023-09-06T18:41:14.633Z,45.70
2023-09-06T18:43:41.852Z,46.17
2023-09-06T18:46:10.182Z,46.43
2023-09-06T18:48:38.849Z,46.56
2023-09-06T18:51:08.290Z,46.73
2023-09-06T18:53:36.979Z,46.39
2023-09-06T18:56:05.835Z,46.89
2023-09-06T18:58:34.403Z,46.84
2023-09-06T19:01:01.889Z,47.33
2023-09-06T19:03:29.103Z,47.07
2023-09-06T19:05:55.957Z,47.79
2023-09-06T19:08:23.191Z,47.30
2023-09-06T19:10:50.095Z,48.10
2023-09-06T19:13:17.417Z,47.95
2023-09-06T19:15:48.809Z,47.28
2023-09-06T19:18:17.704Z,48.14
2023-09-06T19:20:44.722Z,47.83
2023-09-06T19:23:18.303Z,48.41
2023-09-06T19:25:53.518Z,48.25
2023-09-06T19:28:23.031Z,48.49
2023-09-06T19:30:56.970Z,48.34
2023-09-06T19:33:24.433Z,48.69
2023-09-06T19:35:51.200Z,48.80
2023-09-06T19:38:21.318Z,48.69
2023-09-06T19:40:52.023Z,48.76
2023-09-06T19:43:20.435Z,48.82
2023-09-06T19:45:49.747Z,49.02
2023-09-06T19:48:17.952Z,49.11
2023-09-06T19:50:45.295Z,49.08
2023-09-06T19:53:12.053Z,49.13
2023-09-06T19:55:38.856Z,49.61
2023-09-06T19:58:05.699Z,49.26
2023-09-06T20:00:32.412Z,49.70
2023-09-06T20:02:59.232Z,49.91
2023-09-06T20:05:26.093Z,49.97
2023-09-06T20:07:54.951Z,50.05
2023-09-06T20:10:24.016Z,50.01
2023-09-06T20:12:51.628Z,50.43
2023-09-06T20:15:18.381Z,50.43
2023-09-06T20:17:45.380Z,50.70
2023-09-06T20:20:13.331Z,51.04
2023-09-06T20:22:40.149Z,50.91
2023-09-06T20:25:07.875Z,51.17
2023-09-06T20:27:36.712Z,51.23
2023-09-06T20:30:04.274Z,51.01
2023-09-06T20:32:31.719Z,51.38
2023-09-06T20:34:58.705Z,51.60
2023-09-06T20:37:26.116Z,51.37
2023-09-06T20:39:54.487Z,51.87
2023-09-06T20:42:21.361Z,51.75
2023-09-06T20:44:48.353Z,51.81
2023-09-06T20:47:15.067Z,52.19
2023-09-06T20:49:44.676Z,52.11
2023-09-06T20:52:11.795Z,52.00
2023-09-06T20:54:38.679Z,52.78
2023-09-06T20:57:05.742Z,53.13
2023-09-06T20:59:32.512Z,52.59
2023-09-06T21:01:59.260Z,52.87
2023-09-06T21:04:27.130Z,53.02
2023-09-06T21:06:54.039Z,53.62
2023-09-06T21:09:20.723Z,53.32
2023-09-06T21:11:47.318Z,52.85
2023-09-06T21:14:14.014Z,52.89
2023-09-06T21:16:40.679Z,53.24
2023-09-06T21:19:07.753Z,53.28
2023-09-06T21:21:34.328Z,53.90
2023-09-06T21:24:01.036Z,53.73
2023-09-06T21:26:27.711Z,53.62
2023-09-06T21:28:57.072Z,53.61
2023-09-06T21:31:23.897Z,54.13
2023-09-06T21:33:50.577Z,53.69
2023-09-06T21:36:17.375Z,53.85
2023-09-06T21:38:44.054Z,54.20
2023-09-06T21:41:11.587Z,53.52
2023-09-06T21:43:38.266Z,53.46
2023-09-06T21:46:05.015Z,53.92
2023-09-06T21:48:32.053Z,53.58
2023-09-06T21:51:15.353Z,54.12
2023-09-06T21:53:42.080Z,54.05
2023-09-06T21:56:10.051Z,54.06
2023-09-06T21:58:36.862Z,54.23
2023-09-06T22:01:03.830Z,53.79
2023-09-06T22:03:30.712Z,54.29
2023-09-06T22:05:58.103Z,54.04
2023-09-06T22:08:25.235Z,54.04
2023-09-06T22:10:51.931Z,54.31
2023-09-06T22:13:18.814Z,54.35
2023-09-06T22:15:45.578Z,54.53
2023-09-06T22:18:12.300Z,53.65
2023-09-06T22:20:41.458Z,54.07
2023-09-06T22:23:09.217Z,54.00
2023-09-06T22:25:36.370Z,54.18
2023-09-06T22:28:07.916Z,54.44
2023-09-06T22:30:39.515Z,54.10
2023-09-06T22:33:06.326Z,53.79
2023-09-06T22:35:33.392Z,53.61
2023-09-06T22:38:00.315Z,53.88
2023-09-06T22:40:26.959Z,54.39
2023-09-06T22:42:53.757Z,54.31
2023-09-06T22:45:20.440Z,53.96
2023-09-06T22:47:47.055Z,53.65
2023-09-06T22:50:13.973Z,53.99
2023-09-06T22:52:40.693Z,54.34
2023-09-06T22:55:09.608Z,54.46
2023-09-06T22:57:38.083Z,54.68
2023-09-06T23:00:07.707Z,54.16
2023-09-06T23:02:34.942Z,54.57
2023-09-06T23:05:01.691Z,54.83
2023-09-06T23:07:29.242Z,54.65
2023-09-06T23:09:56.674Z,54.69
2023-09-06T23:12:23.478Z,54.84
2023-09-06T23:14:50.380Z,55.12
2023-09-06T23:17:22.900Z,55.02
2023-09-06T23:19:52.783Z,54.32
2023-09-06T23:22:20.960Z,54.20
2023-09-06T23:24:50.638Z,54.50
2023-09-06T23:27:24.434Z,54.99
2023-09-06T23:29:57.072Z,54.81
2023-09-06T23:32:26.516Z,55.08
2023-09-06T23:34:55.221Z,54.56
2023-09-06T23:37:22.354Z,55.54
2023-09-06T23:39:50.065Z,55.40
2023-09-06T23:42:18.294Z,55.19
2023-09-06T23:44:47.163Z,55.65
2023-09-06T23:47:14.829Z,55.24
2023-09-06T23:49:43.911Z,55.24
2023-09-06T23:52:10.614Z,55.72
2023-09-06T23:54:47.369Z,55.41
2023-09-06T23:57:18.673Z,55.41
2023-09-06T23:59:45.729Z,55.46
